createdAt,value
2023-01-17T00:00:57.533Z,17.25
2023-01-17T00:02:19.222Z,13.20
2023-01-17T00:05:00.224Z,13.07
2023-01-17T00:06:20.863Z,25.13
2023-01-17T00:07:41.896Z,20.35
2023-01-17T00:09:02.275Z,11.15
2023-01-17T00:10:25.004Z,12.98
2023-01-17T00:11:46.602Z,9.73
2023-01-17T00:13:07.366Z,5.63
2023-01-17T00:14:28.149Z,13.60
2023-01-17T00:15:50.221Z,9.68
2023-01-17T00:17:10.529Z,12.52
2023-01-17T00:18:31.259Z,9.25
2023-01-17T00:19:52.183Z,5.78
2023-01-17T00:21:12.920Z,8.82
2023-01-17T00:22:33.658Z,7.13
2023-01-17T00:23:54.234Z,11.68
2023-01-17T00:25:16.196Z,9.67
2023-01-17T00:27:57.196Z,5.95
2023-01-17T00:29:17.970Z,9.48
2023-01-17T00:30:39.040Z,6.03
2023-01-17T00:32:01.014Z,7.82
2023-01-17T00:33:22.199Z,7.32
2023-01-17T00:34:42.914Z,4.57
2023-01-17T00:36:04.995Z,4.88
2023-01-17T00:37:25.820Z,8.20
2023-01-17T00:38:46.407Z,9.88
2023-01-17T00:40:08.048Z,10.77
2023-01-17T00:42:48.935Z,4.20
2023-01-17T00:44:09.561Z,7.88
2023-01-17T00:45:30.345Z,6.28
2023-01-17T00:46:51.225Z,6.57
2023-01-17T00:48:12.941Z,9.27
2023-01-17T00:49:33.429Z,16.50
2023-01-17T00:50:54.023Z,7.80
2023-01-17T00:52:14.769Z,6.68
2023-01-17T00:53:35.466Z,9.80
2023-01-17T00:54:56.157Z,10.48
2023-01-17T00:56:16.641Z,11.02
2023-01-17T00:57:37.261Z,14.77
2023-01-17T00:58:58.083Z,9.50
2023-01-17T01:00:18.627Z,13.82
2023-01-17T01:01:39.112Z,12.13
2023-01-17T01:02:59.625Z,8.88
2023-01-17T01:04:21.604Z,7.30
2023-01-17T01:05:42.355Z,14.55
2023-01-17T01:07:03.289Z,7.28
2023-01-17T01:08:25.979Z,8.88
2023-01-17T01:09:46.450Z,9.10
2023-01-17T01:11:08.601Z,10.63
2023-01-17T01:12:29.323Z,6.28
2023-01-17T01:13:50.164Z,3.43
2023-01-17T01:15:11.007Z,11.60
2023-01-17T01:16:31.812Z,9.13
2023-01-17T01:17:52.340Z,11.60
2023-01-17T01:19:12.855Z,6.68
2023-01-17T01:20:34.914Z,3.57
2023-01-17T01:21:55.471Z,9.98
2023-01-17T01:23:16.062Z,6.97
2023-01-17T01:24:36.756Z,8.73
2023-01-17T01:25:57.316Z,6.05
2023-01-17T01:27:17.823Z,13.20
2023-01-17T01:28:38.524Z,7.53
2023-01-17T01:29:59.269Z,14.32
2023-01-17T01:31:19.935Z,17.13
2023-01-17T01:32:41.015Z,7.15
2023-01-17T01:34:01.464Z,8.97
2023-01-17T01:35:22.520Z,8.30
2023-01-17T01:38:05.275Z,19.30
2023-01-17T01:39:25.904Z,11.15
2023-01-17T01:40:48.483Z,15.30
2023-01-17T01:42:14.018Z,15.52
2023-01-17T01:43:42.857Z,15.32
2023-01-17T01:45:08.061Z,16.58
2023-01-17T01:46:33.234Z,5.68
2023-01-17T01:47:56.516Z,9.60
2023-01-17T01:49:19.732Z,9.73
2023-01-17T01:50:40.327Z,10.57
2023-01-17T01:52:06.186Z,9.18
2023-01-17T01:53:26.768Z,11.05
2023-01-17T01:54:50.964Z,7.37
2023-01-17T01:56:13.976Z,10.30
2023-01-17T01:57:38.519Z,9.48
2023-01-17T01:58:59.514Z,11.07
2023-01-17T02:00:24.481Z,12.77
2023-01-17T02:01:45.201Z,19.33
2023-01-17T02:03:09.170Z,9.80
2023-01-17T02:04:29.871Z,6.25
2023-01-17T02:05:50.796Z,5.97
2023-01-17T02:07:15.364Z,12.20
2023-01-17T02:08:36.213Z,11.80
2023-01-17T02:09:56.666Z,12.80
2023-01-17T02:11:17.423Z,7.82
2023-01-17T02:12:38.803Z,12.20
2023-01-17T02:13:59.503Z,10.43
2023-01-17T02:15:20.562Z,12.50
2023-01-17T02:16:51.281Z,8.27
2023-01-17T02:18:16.060Z,15.65
2023-01-17T02:20:12.347Z,11.25
2023-01-17T02:21:35.886Z,9.93
2023-01-17T02:23:23.843Z,10.68
2023-01-17T02:25:00.571Z,11.40
2023-01-17T02:26:41.374Z,12.32
2023-01-17T02:28:16.301Z,9.00
2023-01-17T02:30:00.144Z,10.32
2023-01-17T02:31:26.739Z,12.23
2023-01-17T02:33:25.351Z,7.97
2023-01-17T02:34:49.564Z,16.30
2023-01-17T02:36:14.775Z,14.23
2023-01-17T02:37:42.275Z,10.65
2023-01-17T02:39:08.762Z,7.10
2023-01-17T02:40:31.715Z,14.00
2023-01-17T02:41:54.891Z,10.27
2023-01-17T02:43:16.905Z,11.63
2023-01-17T02:44:40.863Z,11.93
2023-01-17T02:46:01.758Z,6.35
2023-01-17T02:47:25.648Z,10.77
2023-01-17T02:48:46.632Z,9.30
2023-01-17T02:50:09.764Z,9.80
2023-01-17T02:51:44.522Z,6.35
2023-01-17T02:53:18.554Z,11.02
2023-01-17T02:54:51.924Z,8.93
2023-01-17T02:56:18.887Z,8.10
2023-01-17T02:57:53.298Z,7.20
2023-01-17T02:59:21.319Z,11.23
2023-01-17T03:00:50.303Z,8.95
2023-01-17T03:02:17.637Z,17.13
2023-01-17T03:03:47.868Z,10.32
2023-01-17T03:05:12.380Z,7.57
2023-01-17T03:06:36.559Z,7.10
2023-01-17T03:07:57.939Z,9.30
2023-01-17T03:09:18.800Z,11.20
2023-01-17T03:10:39.931Z,11.40
2023-01-17T03:12:00.809Z,7.85
2023-01-17T03:13:21.446Z,6.80
2023-01-17T03:14:42.031Z,8.35
2023-01-17T03:16:04.116Z,12.85
2023-01-17T03:17:26.526Z,12.43
2023-01-17T03:18:48.315Z,15.07
2023-01-17T03:20:10.391Z,15.43
2023-01-17T03:21:31.137Z,10.68
2023-01-17T03:22:51.751Z,13.47
2023-01-17T03:24:12.379Z,13.07
2023-01-17T03:25:33.195Z,9.13
2023-01-17T03:26:53.745Z,19.42
2023-01-17T03:28:14.272Z,11.02
2023-01-17T03:29:34.986Z,16.05
2023-01-17T03:30:55.795Z,8.00
2023-01-17T03:32:16.275Z,10.38
2023-01-17T03:33:37.245Z,10.27
2023-01-17T03:34:59.303Z,11.13
2023-01-17T03:36:19.906Z,9.73
2023-01-17T03:37:40.721Z,12.93
2023-01-17T03:39:00.999Z,10.15
2023-01-17T03:40:21.412Z,16.02
2023-01-17T03:41:42.093Z,14.57
2023-01-17T03:43:02.838Z,14.43
2023-01-17T03:44:23.729Z,12.13
2023-01-17T03:45:44.385Z,17.30
2023-01-17T03:47:05.039Z,18.33
2023-01-17T03:48:25.661Z,25.40
2023-01-17T03:49:46.323Z,13.35
2023-01-17T03:51:08.507Z,14.27
2023-01-17T03:52:29.278Z,18.98
2023-01-17T03:53:49.846Z,15.00
2023-01-17T03:55:10.742Z,21.75
2023-01-17T03:56:31.186Z,15.02
2023-01-17T03:57:51.916Z,15.45
2023-01-17T03:59:13.318Z,17.30
2023-01-17T04:00:33.956Z,22.55
2023-01-17T04:01:54.584Z,19.30
2023-01-17T04:03:15.208Z,10.15
2023-01-17T04:04:35.895Z,17.85
2023-01-17T04:05:56.689Z,11.00
2023-01-17T04:07:18.679Z,12.97
2023-01-17T04:08:39.187Z,18.33
2023-01-17T04:09:59.576Z,14.43
2023-01-17T04:11:20.263Z,17.67
2023-01-17T04:12:40.807Z,8.68
2023-01-17T04:14:01.477Z,13.68
2023-01-17T04:15:22.148Z,14.77
2023-01-17T04:16:42.863Z,11.65
2023-01-17T04:18:04.554Z,10.90
2023-01-17T04:19:25.329Z,10.45
2023-01-17T04:20:46.278Z,15.43
2023-01-17T04:22:07.190Z,19.75
2023-01-17T04:23:29.231Z,14.73
2023-01-17T04:24:49.843Z,19.15
2023-01-17T04:26:12.021Z,19.10
2023-01-17T04:27:32.501Z,9.65
2023-01-17T04:28:53.192Z,17.88
2023-01-17T04:30:13.928Z,15.07
2023-01-17T04:31:34.559Z,20.63
2023-01-17T04:32:55.150Z,14.02
2023-01-17T04:34:15.738Z,9.07
2023-01-17T04:35:36.334Z,18.42
2023-01-17T04:36:57.177Z,10.70
2023-01-17T04:38:17.795Z,9.55
2023-01-17T04:39:39.966Z,19.98
2023-01-17T04:41:00.808Z,7.55
2023-01-17T04:42:21.351Z,18.02
2023-01-17T04:43:42.192Z,12.80
2023-01-17T04:45:02.758Z,15.82
2023-01-17T04:46:23.297Z,5.82
2023-01-17T04:47:43.746Z,14.95
2023-01-17T04:49:04.524Z,10.98
2023-01-17T04:50:25.194Z,14.18
2023-01-17T04:51:45.796Z,17.45
2023-01-17T04:53:06.377Z,12.70
2023-01-17T04:54:26.792Z,13.35
2023-01-17T04:55:48.699Z,18.77
2023-01-17T04:57:08.969Z,14.25
2023-01-17T04:58:29.735Z,19.98
2023-01-17T04:59:50.464Z,9.85
2023-01-17T05:01:11.356Z,25.80
2023-01-17T05:02:31.756Z,16.63
2023-01-17T05:03:52.693Z,17.00
2023-01-17T05:05:13.060Z,17.63
2023-01-17T05:06:33.462Z,10.82
2023-01-17T05:07:54.754Z,11.13
2023-01-17T05:09:15.521Z,16.60
2023-01-17T05:10:35.958Z,14.43
2023-01-17T05:11:58.132Z,17.60
2023-01-17T05:13:18.916Z,22.20
2023-01-17T05:14:39.471Z,14.38
2023-01-17T05:16:00.274Z,14.70
2023-01-17T05:17:20.879Z,21.73
2023-01-17T05:18:41.579Z,7.90
2023-01-17T05:20:02.265Z,12.52
2023-01-17T05:21:23.282Z,24.83
2023-01-17T05:22:43.622Z,24.75
2023-01-17T05:24:04.970Z,16.50
2023-01-17T05:25:27.306Z,11.13
2023-01-17T05:26:50.271Z,14.55
2023-01-17T05:28:14.794Z,22.58
2023-01-17T05:29:35.102Z,25.73
2023-01-17T05:30:55.716Z,19.70
2023-01-17T05:32:16.414Z,12.33
2023-01-17T05:33:37.013Z,14.30
2023-01-17T05:34:57.331Z,15.13
2023-01-17T05:36:19.225Z,13.27
2023-01-17T05:37:43.030Z,17.20
2023-01-17T05:39:03.749Z,10.77
2023-01-17T05:40:25.308Z,16.70
2023-01-17T05:41:45.821Z,10.85
2023-01-17T05:43:06.723Z,14.75
2023-01-17T05:44:28.496Z,15.33
2023-01-17T05:45:49.145Z,10.50
2023-01-17T05:47:09.910Z,11.80
2023-01-17T05:48:30.454Z,19.08
2023-01-17T05:49:51.222Z,11.35
2023-01-17T05:51:11.840Z,17.42
2023-01-17T05:52:32.573Z,11.30
2023-01-17T05:53:53.361Z,14.43
2023-01-17T05:55:13.630Z,13.63
2023-01-17T05:56:34.424Z,13.60
2023-01-17T05:57:55.275Z,11.70
2023-01-17T05:59:18.744Z,18.30
2023-01-17T06:00:42.581Z,11.98
2023-01-17T06:02:03.489Z,13.82
2023-01-17T06:03:24.218Z,12.57
2023-01-17T06:04:45.006Z,17.88
2023-01-17T06:06:05.939Z,19.20
2023-01-17T06:07:26.219Z,15.02
2023-01-17T06:08:46.699Z,9.15
2023-01-17T06:10:08.151Z,12.30
2023-01-17T06:11:28.518Z,11.00
2023-01-17T06:12:49.509Z,9.63
2023-01-17T06:14:10.213Z,12.38
2023-01-17T06:15:30.491Z,16.27
2023-01-17T06:16:52.321Z,10.02
2023-01-17T06:18:14.560Z,11.98
2023-01-17T06:19:35.300Z,10.25
2023-01-17T06:20:56.633Z,6.75
2023-01-17T06:22:17.254Z,10.90
2023-01-17T06:23:37.839Z,14.02
2023-01-17T06:24:58.877Z,15.93
2023-01-17T06:26:19.106Z,11.95
2023-01-17T06:27:39.730Z,10.30
2023-01-17T06:29:01.459Z,12.43
2023-01-17T06:30:22.189Z,17.17
2023-01-17T06:31:42.756Z,10.93
2023-01-17T06:33:05.066Z,8.15
2023-01-17T06:34:25.900Z,12.88
2023-01-17T06:35:49.378Z,9.93
2023-01-17T06:37:10.013Z,8.68
2023-01-17T06:38:30.751Z,16.52
2023-01-17T06:39:51.596Z,7.75
2023-01-17T06:41:12.015Z,10.80
2023-01-17T06:42:32.463Z,13.48
2023-01-17T06:43:53.103Z,5.93
2023-01-17T06:45:13.736Z,9.90
2023-01-17T06:46:34.318Z,6.03
2023-01-17T06:47:55.099Z,9.40
2023-01-17T06:49:17.165Z,13.48
2023-01-17T06:50:37.826Z,10.80
2023-01-17T06:51:58.345Z,10.82
2023-01-17T06:53:19.101Z,10.27
2023-01-17T06:54:39.765Z,12.05
2023-01-17T06:56:00.226Z,10.73
2023-01-17T06:57:20.898Z,6.28
2023-01-17T06:58:41.767Z,7.07
2023-01-17T07:00:03.075Z,5.30
2023-01-17T07:01:24.128Z,9.40
2023-01-17T07:02:44.983Z,10.00
2023-01-17T07:04:07.275Z,6.95
2023-01-17T07:05:29.362Z,7.65
2023-01-17T07:06:49.613Z,9.35
2023-01-17T07:08:10.217Z,14.50
2023-01-17T07:09:31.081Z,10.63
2023-01-17T07:10:51.722Z,13.95
2023-01-17T07:12:13.468Z,11.57
2023-01-17T07:13:36.335Z,13.98
2023-01-17T07:14:56.926Z,10.73
2023-01-17T07:16:17.292Z,13.80
2023-01-17T07:17:38.476Z,8.43
2023-01-17T07:18:59.029Z,7.70
2023-01-17T07:20:19.730Z,14.27
2023-01-17T07:21:41.716Z,5.40
2023-01-17T07:23:02.943Z,9.90
2023-01-17T07:24:23.816Z,12.90
2023-01-17T07:25:44.752Z,11.25
2023-01-17T07:27:04.993Z,6.85
2023-01-17T07:28:26.695Z,10.63
2023-01-17T07:29:47.400Z,9.93
2023-01-17T07:31:08.967Z,13.23
2023-01-17T07:32:29.569Z,8.52
2023-01-17T07:33:50.189Z,10.02
2023-01-17T07:35:10.955Z,8.95
2023-01-17T07:36:31.525Z,14.57
2023-01-17T07:37:54.178Z,14.48
2023-01-17T07:39:14.961Z,8.07
2023-01-17T07:40:41.840Z,5.32
2023-01-17T07:42:02.914Z,9.93
2023-01-17T07:43:23.416Z,9.68
2023-01-17T07:44:43.984Z,15.98
2023-01-17T07:46:05.987Z,10.80
2023-01-17T07:47:26.813Z,9.00
2023-01-17T07:48:47.589Z,8.95
2023-01-17T07:50:10.041Z,11.85
2023-01-17T07:51:30.543Z,4.88
2023-01-17T07:52:51.189Z,13.65
2023-01-17T07:54:13.429Z,9.88
2023-01-17T07:55:33.790Z,9.85
2023-01-17T07:56:54.528Z,7.05
2023-01-17T07:58:15.367Z,17.52
2023-01-17T07:59:35.891Z,13.40
2023-01-17T08:01:01.620Z,9.37
2023-01-17T08:02:23.349Z,10.15
2023-01-17T08:03:43.794Z,10.00
2023-01-17T08:05:04.774Z,15.30
2023-01-17T08:06:25.918Z,17.08
2023-01-17T08:07:46.607Z,17.65
2023-01-17T08:09:07.268Z,15.50
2023-01-17T08:10:29.264Z,15.82
2023-01-17T08:11:49.664Z,9.68
2023-01-17T08:13:10.260Z,10.37
2023-01-17T08:14:30.874Z,8.82
2023-01-17T08:15:51.496Z,8.32
2023-01-17T08:17:13.599Z,10.90
2023-01-17T08:18:34.036Z,10.75
2023-01-17T08:19:54.448Z,9.52
2023-01-17T08:21:15.844Z,12.77
2023-01-17T08:22:36.225Z,7.85
2023-01-17T08:23:56.756Z,13.60
2023-01-17T08:25:17.833Z,8.68
2023-01-17T08:26:40.160Z,13.80
2023-01-17T08:28:00.550Z,9.18
2023-01-17T08:29:21.454Z,13.18
2023-01-17T08:30:42.126Z,7.72
2023-01-17T08:32:02.791Z,10.60
2023-01-17T08:33:23.302Z,7.47
2023-01-17T08:34:43.784Z,10.30
2023-01-17T08:36:04.265Z,13.98
2023-01-17T08:37:24.784Z,9.27
2023-01-17T08:38:45.142Z,9.68
2023-01-17T08:40:06.787Z,8.65
2023-01-17T08:42:55.184Z,11.75
2023-01-17T08:44:15.503Z,11.90
2023-01-17T08:45:36.043Z,12.57
2023-01-17T08:46:56.565Z,12.70
2023-01-17T08:48:16.978Z,9.70
2023-01-17T08:49:37.607Z,10.30
2023-01-17T08:51:00.874Z,11.77
2023-01-17T08:52:21.267Z,14.32
2023-01-17T08:53:42.125Z,7.85
2023-01-17T08:55:02.631Z,10.57
2023-01-17T08:56:23.450Z,12.02
2023-01-17T08:57:43.796Z,11.77
2023-01-17T08:59:05.803Z,11.63
2023-01-17T09:00:26.878Z,13.88
2023-01-17T09:01:56.308Z,11.20
2023-01-17T09:03:19.867Z,12.50
2023-01-17T09:04:40.544Z,14.55
2023-01-17T09:06:02.139Z,9.23
2023-01-17T09:07:22.501Z,11.13
2023-01-17T09:08:44.787Z,10.65
2023-01-17T09:10:07.214Z,11.38
2023-01-17T09:11:27.808Z,16.48
2023-01-17T09:12:48.287Z,10.70
2023-01-17T09:14:11.954Z,9.00
2023-01-17T09:15:32.476Z,8.93
2023-01-17T09:16:53.344Z,14.77
2023-01-17T09:18:13.555Z,11.50
2023-01-17T09:19:33.967Z,7.40
2023-01-17T09:20:54.803Z,9.27
2023-01-17T09:22:15.422Z,8.90
2023-01-17T09:23:35.836Z,9.80
2023-01-17T09:24:56.480Z,6.50
2023-01-17T09:26:20.050Z,15.35
2023-01-17T09:27:40.368Z,16.05
2023-01-17T09:29:00.851Z,13.13
2023-01-17T09:30:22.942Z,11.68
2023-01-17T09:31:43.688Z,8.90
2023-01-17T09:33:04.198Z,17.40
2023-01-17T09:34:24.932Z,9.80
2023-01-17T09:35:45.789Z,12.98
2023-01-17T09:37:06.396Z,15.15
2023-01-17T09:38:27.027Z,12.32
2023-01-17T09:39:47.788Z,11.18
2023-01-17T09:41:23.096Z,13.77
2023-01-17T09:42:43.836Z,14.73
2023-01-17T09:44:11.245Z,9.82
2023-01-17T09:45:34.512Z,10.40
2023-01-17T09:46:58.370Z,9.35
2023-01-17T09:48:23.543Z,11.02
2023-01-17T09:49:45.665Z,14.95
2023-01-17T09:51:09.722Z,12.93
2023-01-17T09:52:31.104Z,15.32
2023-01-17T09:53:52.940Z,17.67
2023-01-17T09:55:14.829Z,12.57
2023-01-17T09:58:00.352Z,15.05
2023-01-17T09:59:32.769Z,13.02
2023-01-17T10:01:02.116Z,11.95
2023-01-17T10:02:39.815Z,14.73
2023-01-17T10:04:12.944Z,14.45
2023-01-17T10:05:44.054Z,13.65
2023-01-17T10:07:14.495Z,13.48
2023-01-17T10:08:46.217Z,13.60
2023-01-17T10:10:16.781Z,14.10
2023-01-17T10:11:53.887Z,10.57
2023-01-17T10:13:26.115Z,14.90
2023-01-17T10:15:19.773Z,10.50
2023-01-17T10:16:47.955Z,14.98
2023-01-17T10:18:29.487Z,8.15
2023-01-17T10:20:02.895Z,9.50
2023-01-17T10:21:32.224Z,8.90
2023-01-17T10:23:07.516Z,10.75
2023-01-17T10:25:12.003Z,12.65
2023-01-17T10:26:33.265Z,10.48
2023-01-17T10:27:57.682Z,7.28
2023-01-17T10:29:20.966Z,8.30
2023-01-17T10:30:44.524Z,9.10
2023-01-17T10:32:08.426Z,6.80
2023-01-17T10:33:31.141Z,6.57
2023-01-17T10:34:53.325Z,10.27
2023-01-17T10:36:18.600Z,8.60
2023-01-17T10:37:40.774Z,6.72
2023-01-17T10:39:04.815Z,8.82
2023-01-17T10:40:29.626Z,11.45
2023-01-17T10:41:54.605Z,10.30
2023-01-17T10:43:19.675Z,11.18
2023-01-17T10:44:46.511Z,6.57
2023-01-17T10:46:14.681Z,6.35
2023-01-17T10:47:37.687Z,6.70
2023-01-17T10:48:59.399Z,14.85
2023-01-17T10:50:22.603Z,10.20
2023-01-17T10:51:58.111Z,10.85
2023-01-17T10:53:30.740Z,14.05
2023-01-17T10:54:59.122Z,9.25
2023-01-17T10:56:26.106Z,13.95
2023-01-17T10:57:49.112Z,10.05
2023-01-17T10:59:18.007Z,5.80
2023-01-17T11:00:46.442Z,12.15
2023-01-17T11:02:18.461Z,7.30
2023-01-17T11:03:40.977Z,8.55
2023-01-17T11:05:04.626Z,10.45
2023-01-17T11:06:27.258Z,6.18
2023-01-17T11:07:58.048Z,9.38
2023-01-17T11:09:21.622Z,10.07
2023-01-17T11:10:44.126Z,7.30
2023-01-17T11:12:05.392Z,12.93
2023-01-17T11:13:29.632Z,5.88
2023-01-17T11:15:01.294Z,8.52
2023-01-17T11:16:25.493Z,6.85
2023-01-17T11:17:50.519Z,5.28
2023-01-17T11:19:21.853Z,6.22
2023-01-17T11:20:43.036Z,9.75
2023-01-17T11:22:05.500Z,12.57
2023-01-17T11:23:30.319Z,6.75
2023-01-17T11:24:53.793Z,6.63
2023-01-17T11:26:24.446Z,4.50
2023-01-17T11:27:58.348Z,6.28
2023-01-17T11:29:35.810Z,8.40
2023-01-17T11:30:59.245Z,5.80
2023-01-17T11:32:31.327Z,5.47
2023-01-17T11:34:11.500Z,4.57
2023-01-17T11:35:35.540Z,5.45
2023-01-17T11:37:09.698Z,4.60
2023-01-17T11:38:30.504Z,7.85
2023-01-17T11:39:51.537Z,6.57
2023-01-17T11:41:15.542Z,4.93
2023-01-17T11:42:37.819Z,5.47
2023-01-17T11:43:59.920Z,5.68
2023-01-17T11:45:25.110Z,3.38
2023-01-17T11:46:45.794Z,4.82
2023-01-17T11:48:17.427Z,6.97
2023-01-17T11:49:39.017Z,4.80
2023-01-17T11:51:04.030Z,3.67
2023-01-17T11:52:31.527Z,4.90
2023-01-17T11:53:54.928Z,2.90
2023-01-17T11:55:16.502Z,4.43
2023-01-17T11:56:38.298Z,5.55
2023-01-17T11:58:00.365Z,3.67
2023-01-17T11:59:31.416Z,5.10
2023-01-17T12:01:00.288Z,7.72
2023-01-17T12:02:36.992Z,3.47
2023-01-17T12:04:17.434Z,2.13
2023-01-17T12:05:50.176Z,3.58
2023-01-17T12:07:34.637Z,2.75
2023-01-17T12:09:09.014Z,2.60
2023-01-17T12:10:33.919Z,4.15
2023-01-17T12:12:03.737Z,3.45
2023-01-17T12:13:44.066Z,3.60
2023-01-17T12:15:15.413Z,4.00
2023-01-17T12:16:51.149Z,4.13
2023-01-17T12:18:32.571Z,6.25
2023-01-17T12:20:01.032Z,6.45
2023-01-17T12:21:26.195Z,3.97
2023-01-17T12:23:10.416Z,5.95
2023-01-17T12:24:42.045Z,3.53
2023-01-17T12:26:12.806Z,5.25
2023-01-17T12:27:41.988Z,7.18
2023-01-17T12:29:47.143Z,6.05
2023-01-17T12:31:15.670Z,6.20
2023-01-17T12:32:46.095Z,4.97
2023-01-17T12:34:22.956Z,4.03
2023-01-17T12:35:47.109Z,6.20
2023-01-17T12:37:14.013Z,3.42
2023-01-17T12:38:38.381Z,9.40
2023-01-17T12:40:03.760Z,3.95
2023-01-17T12:41:26.765Z,3.95
2023-01-17T12:42:52.006Z,4.35
2023-01-17T12:44:14.167Z,4.53
2023-01-17T12:45:39.479Z,5.35
2023-01-17T12:47:03.802Z,2.67
2023-01-17T12:48:31.006Z,4.80
2023-01-17T12:50:00.732Z,4.25
2023-01-17T12:52:51.969Z,2.75
2023-01-17T12:54:19.023Z,9.98
2023-01-17T12:55:47.703Z,4.22
2023-01-17T12:57:13.894Z,4.70
2023-01-17T12:58:39.726Z,8.43
2023-01-17T13:00:05.204Z,5.15
2023-01-17T13:01:31.444Z,2.25
2023-01-17T13:02:56.787Z,1.58
2023-01-17T13:04:23.300Z,2.58
2023-01-17T13:05:46.538Z,7.55
2023-01-17T13:07:13.469Z,3.08
2023-01-17T13:08:39.310Z,2.53
2023-01-17T13:10:05.110Z,3.33
2023-01-17T13:11:29.504Z,2.88
2023-01-17T13:12:51.950Z,2.78
2023-01-17T13:14:12.767Z,3.28
2023-01-17T13:15:38.075Z,2.85
2023-01-17T13:17:02.622Z,3.40
2023-01-17T13:18:25.559Z,3.28
2023-01-17T13:19:50.802Z,2.67
2023-01-17T13:21:28.040Z,1.50
2023-01-17T13:22:50.099Z,4.50
2023-01-17T13:24:26.280Z,8.10
2023-01-17T13:25:51.134Z,5.18
2023-01-17T13:27:39.822Z,2.53
2023-01-17T13:29:09.545Z,5.20
2023-01-17T13:31:05.308Z,4.88
2023-01-17T13:32:45.381Z,5.72
2023-01-17T13:34:25.223Z,4.63
2023-01-17T13:35:56.267Z,5.05
2023-01-17T13:37:42.108Z,2.85
2023-01-17T13:39:37.414Z,3.35
2023-01-17T13:41:05.589Z,2.08
2023-01-17T13:42:30.788Z,5.30
2023-01-17T13:43:52.031Z,2.83
2023-01-17T13:45:19.555Z,2.80
2023-01-17T13:47:26.469Z,2.58
2023-01-17T13:48:47.568Z,2.88
2023-01-17T13:50:41.951Z,3.33
2023-01-17T13:52:06.323Z,3.60
2023-01-17T13:53:57.084Z,2.85
2023-01-17T13:55:47.468Z,2.42
2023-01-17T13:57:44.471Z,6.20
2023-01-17T13:59:26.439Z,3.40
2023-01-17T14:00:49.059Z,5.07
2023-01-17T14:02:37.454Z,5.15
2023-01-17T14:04:09.744Z,5.63
2023-01-17T14:05:55.692Z,6.10
2023-01-17T14:07:22.718Z,4.03
2023-01-17T14:08:45.227Z,1.95
2023-01-17T14:10:30.905Z,2.22
2023-01-17T14:11:58.430Z,3.15
2023-01-17T14:13:33.441Z,2.55
2023-01-17T14:14:56.562Z,2.38
2023-01-17T14:16:26.547Z,2.25
2023-01-17T14:17:51.719Z,5.72
2023-01-17T14:19:25.350Z,2.00
2023-01-17T14:20:50.145Z,3.35
2023-01-17T14:22:19.658Z,1.60
2023-01-17T14:23:49.082Z,3.88
2023-01-17T14:25:14.300Z,3.53
2023-01-17T14:26:46.930Z,4.00
2023-01-17T14:28:22.330Z,3.67
2023-01-17T14:29:50.928Z,7.22
2023-01-17T14:31:12.163Z,2.67
2023-01-17T14:32:37.706Z,7.38
2023-01-17T14:34:12.187Z,4.03
2023-01-17T14:35:35.489Z,3.70
2023-01-17T14:37:05.080Z,5.70
2023-01-17T14:38:27.584Z,3.45
2023-01-17T14:39:50.469Z,3.70
2023-01-17T14:41:15.114Z,5.18
2023-01-17T14:42:36.640Z,6.50
2023-01-17T14:43:58.632Z,1.60
2023-01-17T14:45:27.492Z,2.75
2023-01-17T14:46:50.111Z,1.48
2023-01-17T14:48:16.521Z,5.65
2023-01-17T14:49:37.362Z,3.83
2023-01-17T14:50:59.020Z,3.35
2023-01-17T14:52:19.834Z,3.03
2023-01-17T14:53:40.854Z,4.78
2023-01-17T14:55:09.811Z,5.35
2023-01-17T14:56:34.870Z,4.85
2023-01-17T14:57:56.212Z,4.05
2023-01-17T14:59:21.756Z,2.85
2023-01-17T15:00:59.790Z,5.80
2023-01-17T15:02:21.325Z,6.85
2023-01-17T15:03:44.494Z,3.75
2023-01-17T15:05:06.075Z,6.78
2023-01-17T15:06:31.400Z,4.68
2023-01-17T15:07:54.325Z,7.43
2023-01-17T15:09:19.794Z,3.40
2023-01-17T15:10:49.091Z,5.07
2023-01-17T15:12:10.951Z,6.00
2023-01-17T15:13:44.372Z,6.85
2023-01-17T15:15:26.854Z,6.97
2023-01-17T15:16:49.743Z,5.80
2023-01-17T15:18:22.220Z,4.55
2023-01-17T15:19:45.906Z,4.00
2023-01-17T15:21:09.547Z,2.63
2023-01-17T15:22:30.659Z,3.63
2023-01-17T15:23:53.798Z,5.50
2023-01-17T15:25:16.210Z,6.28
2023-01-17T15:26:41.652Z,3.95
2023-01-17T15:28:05.065Z,5.05
2023-01-17T15:29:27.964Z,10.30
2023-01-17T15:31:04.907Z,3.17
2023-01-17T15:32:27.574Z,5.82
2023-01-17T15:33:52.104Z,3.20
2023-01-17T15:35:17.102Z,2.72
2023-01-17T15:36:37.938Z,4.90
2023-01-17T15:37:59.172Z,5.50
2023-01-17T15:40:43.651Z,7.97
2023-01-17T15:42:07.387Z,6.82
2023-01-17T15:43:34.538Z,3.03
2023-01-17T15:44:58.121Z,7.05
2023-01-17T15:46:25.086Z,6.10
2023-01-17T15:47:49.880Z,6.75
2023-01-17T15:49:19.247Z,4.40
2023-01-17T15:50:40.315Z,4.32
2023-01-17T15:52:14.677Z,5.55
2023-01-17T15:53:39.613Z,4.38
2023-01-17T15:55:12.620Z,5.40
2023-01-17T15:56:36.451Z,4.55
2023-01-17T15:57:57.355Z,4.07
2023-01-17T16:00:49.608Z,3.85
2023-01-17T16:02:33.280Z,4.85
2023-01-17T16:03:56.067Z,7.15
2023-01-17T16:05:32.615Z,7.20
2023-01-17T16:06:53.378Z,4.47
2023-01-17T16:08:29.667Z,13.32
2023-01-17T16:09:50.848Z,14.43
2023-01-17T16:11:11.833Z,15.30
2023-01-17T16:12:33.101Z,9.55
2023-01-17T16:13:58.835Z,11.15
2023-01-17T16:15:20.782Z,16.40
2023-01-17T16:16:52.234Z,14.23
2023-01-17T16:18:17.035Z,13.43
2023-01-17T16:19:39.780Z,12.55
2023-01-17T16:21:05.715Z,9.38
2023-01-17T16:22:26.856Z,11.15
2023-01-17T16:23:48.314Z,12.82
2023-01-17T16:25:16.570Z,9.38
2023-01-17T16:26:38.557Z,9.48
2023-01-17T16:27:59.712Z,10.20
2023-01-17T16:29:20.562Z,7.45
2023-01-17T16:30:41.516Z,5.00
2023-01-17T16:32:02.283Z,9.05
2023-01-17T16:33:23.385Z,7.78
2023-01-17T16:34:45.539Z,10.88
2023-01-17T16:36:10.548Z,14.27
2023-01-17T16:37:32.531Z,9.23
2023-01-17T16:38:53.632Z,7.07
2023-01-17T16:40:14.950Z,8.60
2023-01-17T16:41:36.008Z,7.65
2023-01-17T16:42:58.244Z,10.45
2023-01-17T16:44:19.210Z,6.78
2023-01-17T16:45:41.498Z,9.93
2023-01-17T16:47:02.384Z,13.27
2023-01-17T16:48:23.415Z,5.07
2023-01-17T16:49:45.747Z,8.90
2023-01-17T16:51:09.781Z,9.70
2023-01-17T16:52:31.071Z,7.13
2023-01-17T16:53:52.051Z,7.85
2023-01-17T16:55:14.902Z,10.80
2023-01-17T16:56:35.984Z,9.43
2023-01-17T16:57:57.472Z,12.75
2023-01-17T16:59:18.269Z,7.57
2023-01-17T17:00:40.133Z,8.82
2023-01-17T17:02:04.476Z,9.20
2023-01-17T17:03:25.371Z,7.40
2023-01-17T17:04:47.913Z,9.07
2023-01-17T17:06:08.961Z,9.77
2023-01-17T17:07:30.238Z,9.85
2023-01-17T17:08:50.839Z,6.67
2023-01-17T17:10:12.552Z,9.38
2023-01-17T17:11:33.287Z,7.95
2023-01-17T17:12:54.400Z,7.28
2023-01-17T17:15:41.192Z,9.52
2023-01-17T17:17:02.279Z,7.95
2023-01-17T17:18:23.259Z,9.20
2023-01-17T17:19:43.980Z,9.30
2023-01-17T17:21:06.647Z,9.10
2023-01-17T17:22:27.714Z,12.57
2023-01-17T17:23:48.829Z,9.38
2023-01-17T17:25:10.767Z,13.20
2023-01-17T17:26:33.057Z,10.93
2023-01-17T17:27:54.401Z,10.45
2023-01-17T17:29:15.676Z,9.88
2023-01-17T17:30:36.706Z,9.82
2023-01-17T17:31:57.889Z,8.02
2023-01-17T17:33:18.892Z,10.55
2023-01-17T17:34:40.353Z,11.00
2023-01-17T17:36:07.981Z,11.48
2023-01-17T17:37:29.243Z,14.40
2023-01-17T17:40:10.961Z,10.93
2023-01-17T17:41:33.457Z,11.38
2023-01-17T17:42:53.713Z,14.70
2023-01-17T17:44:14.725Z,12.65
2023-01-17T17:45:35.031Z,13.90
2023-01-17T17:46:55.605Z,13.27
2023-01-17T17:48:16.565Z,15.32
2023-01-17T17:49:37.215Z,22.08
2023-01-17T17:50:59.654Z,18.17
2023-01-17T17:52:21.517Z,14.52
2023-01-17T17:53:42.522Z,14.25
2023-01-17T17:55:03.419Z,16.85
2023-01-17T17:56:24.331Z,14.93
2023-01-17T17:57:44.911Z,14.95
2023-01-17T17:59:06.824Z,16.95
2023-01-17T18:00:27.466Z,15.70
2023-01-17T18:01:48.600Z,16.58
2023-01-17T18:03:09.088Z,16.95
2023-01-17T18:04:29.795Z,18.23
2023-01-17T18:05:50.461Z,14.68
2023-01-17T18:07:11.004Z,18.07
2023-01-17T18:08:32.950Z,13.20
2023-01-17T18:09:53.411Z,13.73
2023-01-17T18:11:16.637Z,11.63
2023-01-17T18:12:37.318Z,12.75
2023-01-17T18:13:59.941Z,12.30
2023-01-17T18:15:20.671Z,9.75
2023-01-17T18:16:43.584Z,10.23
2023-01-17T18:18:04.478Z,14.27
2023-01-17T18:19:25.836Z,10.20
2023-01-17T18:20:46.362Z,9.52
2023-01-17T18:22:07.147Z,9.25
2023-01-17T18:23:27.802Z,13.85
2023-01-17T18:24:49.944Z,10.35
2023-01-17T18:26:16.323Z,11.48
2023-01-17T18:27:37.379Z,11.27
2023-01-17T18:28:59.250Z,9.73
2023-01-17T18:30:19.911Z,11.20
2023-01-17T18:31:41.239Z,10.70
2023-01-17T18:33:02.047Z,9.63
2023-01-17T18:34:24.676Z,10.98
2023-01-17T18:35:53.297Z,10.20
2023-01-17T18:37:14.460Z,16.40